createdAt,value
2024-03-04T00:00:00.976Z,100378.26
2024-03-04T00:05:29.162Z,100381.01
2024-03-04T00:10:36.504Z,100378.38
2024-03-04T00:15:43.829Z,100378.29
2024-03-04T00:20:50.960Z,100374.38
2024-03-04T00:25:58.210Z,100376.04
2024-03-04T00:31:05.870Z,100375.30
2024-03-04T00:36:13.355Z,100376.58
2024-03-04T00:41:27.227Z,100374.33
2024-03-04T00:46:34.694Z,100379.31
2024-03-04T00:51:41.997Z,100372.08
2024-03-04T00:56:49.238Z,100370.84
2024-03-04T01:01:57.514Z,100367.95
2024-03-04T01:07:04.860Z,100366.41
2024-03-04T01:12:12.169Z,100367.73
2024-03-04T01:17:19.427Z,100367.73
2024-03-04T01:22:28.092Z,100371.33
2024-03-04T01:27:37.093Z,100369.19
2024-03-04T01:32:44.369Z,100360.79
2024-03-04T01:37:52.110Z,100358.59
2024-03-04T01:43:00.146Z,100354.77
2024-03-04T01:48:07.752Z,100357.06
2024-03-04T01:53:17.042Z,100357.54
2024-03-04T01:58:25.222Z,100355.45
2024-03-04T02:03:36.992Z,100356.64
2024-03-04T02:08:44.247Z,100354.66
2024-03-04T02:13:51.958Z,100347.29
2024-03-04T02:18:59.187Z,100343.95
2024-03-04T02:24:06.954Z,100344.71
2024-03-04T02:29:14.767Z,100341.02
2024-03-04T02:34:22.058Z,100344.61
2024-03-04T02:39:29.588Z,100347.23
2024-03-04T02:44:37.149Z,100347.27
2024-03-04T02:49:44.922Z,100351.45
2024-03-04T02:54:52.049Z,100356.75
2024-03-04T02:59:59.301Z,100362.59
2024-03-04T03:05:08.056Z,100366.45
2024-03-04T03:10:17.104Z,100363.13
2024-03-04T03:15:24.349Z,100362.81
2024-03-04T03:20:31.771Z,100365.59
2024-03-04T03:25:39.124Z,100369.42
2024-03-04T03:30:46.349Z,100369.32
2024-03-04T03:35:53.513Z,100376.31
2024-03-04T03:41:01.466Z,100375.94
2024-03-04T03:46:07.123Z,100377.52
2024-03-04T03:51:14.369Z,100380.09
2024-03-04T03:56:21.724Z,100381.30
2024-03-04T04:01:28.939Z,100389.96
2024-03-04T04:06:36.259Z,100391.72
2024-03-04T04:11:46.001Z,100396.42
2024-03-04T04:16:53.234Z,100398.98
2024-03-04T04:22:01.751Z,100407.44
2024-03-04T04:27:09.716Z,100412.99
2024-03-04T04:32:15.273Z,100411.27
2024-03-04T04:37:22.565Z,100419.20
2024-03-04T04:42:30.202Z,100425.17
2024-03-04T04:47:37.416Z,100422.80
2024-03-04T04:52:44.613Z,100428.91
2024-03-04T04:57:51.961Z,100431.76
2024-03-04T05:02:59.072Z,100437.53
2024-03-04T05:08:06.886Z,100443.47
2024-03-04T05:13:14.047Z,100443.40
2024-03-04T05:18:21.264Z,100453.94
2024-03-04T05:23:28.423Z,100461.27
2024-03-04T05:28:35.667Z,100460.30
2024-03-04T05:33:43.714Z,100458.56
2024-03-04T05:38:50.936Z,100465.70
2024-03-04T05:43:58.212Z,100470.77
2024-03-04T05:49:05.838Z,100477.35
2024-03-04T05:54:13.374Z,100484.36
2024-03-04T05:59:22.360Z,100489.55
2024-03-04T06:04:29.962Z,100489.41
2024-03-04T06:09:37.305Z,100491.55
2024-03-04T06:14:44.375Z,100496.52
2024-03-04T06:19:51.593Z,100497.14
2024-03-04T06:24:58.778Z,100502.73
2024-03-04T06:30:14.054Z,100512.02
2024-03-04T06:35:21.796Z,100515.53
2024-03-04T06:40:29.171Z,100519.11
2024-03-04T06:45:37.683Z,100524.39
2024-03-04T06:50:45.471Z,100523.30
2024-03-04T06:55:53.256Z,100521.61
2024-03-04T07:01:00.645Z,100525.48
2024-03-04T07:06:14.639Z,100525.60
2024-03-04T07:11:22.041Z,100524.64
2024-03-04T07:16:29.393Z,100521.62
2024-03-04T07:21:36.654Z,100526.44
2024-03-04T07:26:44.155Z,100529.34
2024-03-04T07:31:51.744Z,100530.65
2024-03-04T07:36:59.658Z,100526.93
2024-03-04T07:42:07.545Z,100531.35
2024-03-04T07:47:14.828Z,100534.47
2024-03-04T07:52:22.162Z,100533.91
2024-03-04T07:57:29.823Z,100532.30
2024-03-04T08:02:37.200Z,100532.99
2024-03-04T08:07:44.637Z,100540.59
2024-03-04T08:12:52.055Z,100545.10
2024-03-04T08:18:00.778Z,100550.15
2024-03-04T08:23:08.510Z,100554.44
2024-03-04T08:28:20.353Z,100556.57
2024-03-04T08:33:36.520Z,100555.52
2024-03-04T08:38:43.926Z,100557.13
2024-03-04T08:43:51.674Z,100559.02
2024-03-04T08:48:59.013Z,100564.80
2024-03-04T08:54:06.526Z,100570.76
2024-03-04T08:59:13.699Z,100569.95
2024-03-04T09:04:21.237Z,100568.27
2024-03-04T09:09:28.690Z,100569.45
2024-03-04T09:14:36.064Z,100569.80
2024-03-04T09:19:46.162Z,100571.73
2024-03-04T09:24:53.956Z,100570.95
2024-03-04T09:30:01.384Z,100567.59
2024-03-04T09:35:08.109Z,100566.17
2024-03-04T09:40:17.566Z,100568.70
2024-03-04T09:45:26.896Z,100569.73
2024-03-04T09:50:35.647Z,100576.09
2024-03-04T09:55:43.412Z,100581.02
2024-03-04T10:00:51.314Z,100587.23
2024-03-04T10:05:59.460Z,100592.05
2024-03-04T10:11:07.119Z,100593.16
2024-03-04T10:16:16.995Z,100594.17
2024-03-04T10:21:24.401Z,100590.76
2024-03-04T10:26:43.646Z,100587.85
2024-03-04T10:31:55.141Z,100588.39
2024-03-04T10:37:04.427Z,100589.52
2024-03-04T10:42:16.573Z,100587.73
2024-03-04T10:47:24.414Z,100584.16
2024-03-04T10:52:31.768Z,100580.07
2024-03-04T10:57:44.270Z,100581.55
2024-03-04T11:02:58.669Z,100577.80
2024-03-04T11:08:09.858Z,100578.34
2024-03-04T11:13:27.912Z,100579.22
2024-03-04T11:18:42.398Z,100577.61
2024-03-04T11:23:51.838Z,100578.48
2024-03-04T11:28:59.693Z,100580.62
2024-03-04T11:34:11.087Z,100578.80
2024-03-04T11:39:22.346Z,100576.21
2024-03-04T11:44:30.923Z,100573.39
2024-03-04T11:49:47.279Z,100575.09
2024-03-04T11:54:58.581Z,100576.43
2024-03-04T12:00:10.835Z,100575.88
2024-03-04T12:05:18.524Z,100578.89
2024-03-04T12:10:27.153Z,100575.11
2024-03-04T12:15:34.475Z,100574.77
2024-03-04T12:20:44.326Z,100578.52
2024-03-04T12:25:51.745Z,100580.45
2024-03-04T12:30:59.796Z,100580.23
2024-03-04T12:36:08.438Z,100578.83
2024-03-04T12:41:22.961Z,100579.83
2024-03-04T12:46:30.274Z,100590.69
2024-03-04T12:51:38.781Z,100594.82
2024-03-04T12:56:46.377Z,100589.06
2024-03-04T13:01:56.503Z,100583.29
2024-03-04T13:07:05.754Z,100580.17
2024-03-04T13:12:14.233Z,100581.04
2024-03-04T13:18:03.913Z,100579.78
2024-03-04T13:23:11.736Z,100575.27
2024-03-04T13:28:19.422Z,100578.34
2024-03-04T13:34:39.210Z,100581.41
2024-03-04T13:39:55.498Z,100580.48
2024-03-04T13:45:03.677Z,100582.29
2024-03-04T13:51:27.885Z,100582.43
2024-03-04T13:56:41.126Z,100585.20
2024-03-04T14:01:48.662Z,100588.13
2024-03-04T14:06:56.278Z,100588.69
2024-03-04T14:12:03.858Z,100589.73
2024-03-04T14:17:11.681Z,100591.74
2024-03-04T14:22:19.100Z,100593.70
2024-03-04T14:27:27.367Z,100598.34
2024-03-04T14:32:33.398Z,100602.30
2024-03-04T14:37:40.939Z,100596.80
2024-03-04T14:42:48.317Z,100600.52
2024-03-04T14:47:57.390Z,100606.03
2024-03-04T14:53:05.639Z,100605.29
2024-03-04T14:58:31.291Z,100603.75
2024-03-04T15:04:06.862Z,100607.30
2024-03-04T15:10:05.625Z,100607.27
2024-03-04T15:15:17.076Z,100607.70
2024-03-04T15:20:29.569Z,100615.95
2024-03-04T15:25:40.397Z,100620.89
2024-03-04T15:30:49.031Z,100618.85
2024-03-04T15:36:09.917Z,100623.95
2024-03-04T15:41:25.100Z,100627.88
2024-03-04T15:46:32.484Z,100628.10
2024-03-04T15:51:45.349Z,100627.52
2024-03-04T15:56:52.885Z,100628.70
2024-03-04T16:02:00.781Z,100634.77
2024-03-04T16:07:08.184Z,100635.69
2024-03-04T16:12:16.028Z,100634.67
2024-03-04T16:17:23.458Z,100637.04
2024-03-04T16:22:31.084Z,100648.69
2024-03-04T16:27:38.460Z,100654.34
2024-03-04T16:32:45.889Z,100659.23
2024-03-04T16:37:53.443Z,100661.91
2024-03-04T16:43:01.380Z,100666.24
2024-03-04T16:48:09.468Z,100672.23
2024-03-04T16:53:16.009Z,100673.26
2024-03-04T16:58:23.236Z,100675.67
2024-03-04T17:03:30.630Z,100684.27
2024-03-04T17:08:38.334Z,100685.61
2024-03-04T17:13:45.755Z,100693.02
2024-03-04T17:18:53.064Z,100689.10
2024-03-04T17:24:00.830Z,100690.44
2024-03-04T17:29:10.825Z,100695.42
2024-03-04T17:34:18.477Z,100698.09
2024-03-04T17:39:25.885Z,100700.30
2024-03-04T17:45:20.503Z,100702.29
2024-03-04T17:50:30.818Z,100702.13
2024-03-04T17:55:47.962Z,100706.73
2024-03-04T18:00:57.767Z,100711.27
2024-03-04T18:06:06.485Z,100704.59
2024-03-04T18:11:14.614Z,100703.21
2024-03-04T18:16:22.324Z,100704.41
2024-03-04T18:21:30.409Z,100707.17
2024-03-04T18:26:36.585Z,100712.81
2024-03-04T18:31:44.459Z,100715.88
2024-03-04T18:36:50.409Z,100717.59
2024-03-04T18:42:00.392Z,100719.99
2024-03-04T18:47:07.811Z,100720.95
2024-03-04T18:52:16.003Z,100718.61
2024-03-04T18:57:24.690Z,100721.80
2024-03-04T19:02:32.228Z,100726.04
2024-03-04T19:07:39.717Z,100732.89
2024-03-04T19:12:47.455Z,100738.23
2024-03-04T19:17:55.183Z,100736.80
2024-03-04T19:23:02.742Z,100742.81
2024-03-04T19:28:13.379Z,100741.77
2024-03-04T19:33:22.888Z,100743.90
2024-03-04T19:38:30.879Z,100740.62
2024-03-04T19:43:38.317Z,100744.75
2024-03-04T19:48:47.223Z,100743.09
2024-03-04T19:53:55.261Z,100746.81
2024-03-04T19:59:03.115Z,100741.83
2024-03-04T20:04:10.749Z,100735.22
2024-03-04T20:09:18.147Z,100735.69
2024-03-04T20:14:25.832Z,100730.51
2024-03-04T20:19:33.309Z,100736.56
2024-03-04T20:24:40.751Z,100739.15
2024-03-04T20:29:48.847Z,100738.42
2024-03-04T20:34:55.220Z,100734.73
2024-03-04T20:40:17.713Z,100737.98
2024-03-04T20:46:14.816Z,100733.13
2024-03-04T20:51:35.890Z,100731.20
2024-03-04T20:56:44.269Z,100735.84
2024-03-04T21:01:51.860Z,100737.30
2024-03-04T21:06:59.463Z,100738.18
2024-03-04T21:12:07.529Z,100738.81
2024-03-04T21:17:13.389Z,100739.27
2024-03-04T21:22:24.043Z,100740.80
2024-03-04T21:27:32.063Z,100737.09
2024-03-04T21:32:40.097Z,100737.60
2024-03-04T21:37:46.374Z,100735.50
2024-03-04T21:42:55.231Z,100743.11
2024-03-04T21:48:02.463Z,100738.60
2024-03-04T21:53:09.868Z,100734.82
2024-03-04T21:58:19.347Z,100733.14
2024-03-04T22:03:26.885Z,100734.45
2024-03-04T22:08:36.426Z,100730.91
2024-03-04T22:13:51.891Z,100731.98
2024-03-04T22:19:05.569Z,100730.90
2024-03-04T22:24:13.202Z,100732.60
2024-03-04T22:29:20.904Z,100728.68
2024-03-04T22:34:31.086Z,100725.57
2024-03-04T22:39:43.094Z,100727.52
2024-03-04T22:44:58.764Z,100730.74
2024-03-04T22:50:10.076Z,100733.56
2024-03-04T22:55:17.862Z,100733.63
2024-03-04T23:00:29.770Z,100729.70
2024-03-04T23:05:37.222Z,100733.73
2024-03-04T23:10:44.740Z,100731.92
2024-03-04T23:15:52.924Z,100732.10
2024-03-04T23:21:00.728Z,100732.98
2024-03-04T23:26:08.452Z,100732.36
2024-03-04T23:31:15.977Z,100732.61
2024-03-04T23:36:24.522Z,100729.83
2024-03-04T23:41:32.403Z,100733.84
2024-03-04T23:46:39.749Z,100730.92
2024-03-04T23:51:47.077Z,100733.28
2024-03-04T23:56:54.294Z,100737.14
